Time;durP1;ratioP1;P1;durP2;ratioP2;P2;SDS_P1;SDS_P2;PMS_P1;PMS_P2;Temp;Humidity;BMP_temperature;BMP_pressure;BME280_temperature;BME280_humidity;BME280_pressure;Samples;Min_cycle;Max_cycle;Signal;HPM_P1;HPM_P2
2021/08/26 00:06:58;;;;;;;2.65;1.20;;;16.90;76.10;;;;;;5030441;28;20041;-93
2021/08/26 00:09:25;;;;;;;5.63;1.95;;;17.00;76.10;;;;;;5057401;28;20108;-92
2021/08/26 00:11:54;;;;;;;3.88;1.45;;;17.00;76.10;;;;;;5015220;28;20089;-94
2021/08/26 00:14:23;;;;;;;5.28;1.95;;;17.00;76.10;;;;;;5032868;28;20446;-91
2021/08/26 00:16:51;;;;;;;7.50;2.28;;;16.90;76.20;;;;;;5034108;28;20053;-94
2021/08/26 00:19:20;;;;;;;6.10;2.53;;;17.00;76.60;;;;;;5062777;28;20115;-94
2021/08/26 00:21:47;;;;;;;8.82;2.10;;;16.90;76.60;;;;;;5034938;28;20049;-93
2021/08/26 00:24:14;;;;;;;7.28;2.72;;;17.00;76.70;;;;;;5027733;28;20046;-92
2021/08/26 00:26:41;;;;;;;8.60;2.40;;;17.00;76.80;;;;;;5015434;28;20068;-95
2021/08/26 00:29:08;;;;;;;7.57;2.40;;;17.00;76.80;;;;;;5033793;28;20050;-92
2021/08/26 00:31:35;;;;;;;8.98;2.45;;;17.00;76.90;;;;;;5033385;28;20466;-93
2021/08/26 00:34:02;;;;;;;6.57;2.55;;;17.00;77.10;;;;;;5020944;28;20161;-93
2021/08/26 00:36:29;;;;;;;4.93;2.25;;;17.00;77.10;;;;;;5024090;28;20060;-93
2021/08/26 00:38:56;;;;;;;8.13;2.70;;;17.00;77.20;;;;;;5063077;28;20054;-92
2021/08/26 00:41:24;;;;;;;7.30;2.33;;;17.00;77.30;;;;;;5014414;28;20451;-93
2021/08/26 00:43:51;;;;;;;6.28;2.28;;;17.00;77.40;;;;;;5030986;28;20666;-92
2021/08/26 00:46:18;;;;;;;5.70;2.08;;;17.00;77.40;;;;;;5049254;28;20107;-92
2021/08/26 00:48:46;;;;;;;7.28;2.38;;;17.00;77.60;;;;;;5025938;28;20119;-94
2021/08/26 00:51:14;;;;;;;4.55;2.05;;;17.00;77.60;;;;;;5032187;28;20053;-93
2021/08/26 00:53:42;;;;;;;4.38;2.30;;;16.90;77.70;;;;;;5034865;28;20053;-92
2021/08/26 00:56:18;;;;;;;6.35;2.67;;;17.00;77.80;;;;;;5066667;28;20056;-93
2021/08/26 00:58:47;;;;;;;7.43;2.25;;;16.90;77.90;;;;;;5014878;28;20515;-92
2021/08/26 01:01:27;;;;;;;7.22;2.50;;;16.90;78.00;;;;;;5029637;28;20061;-91
2021/08/26 01:04:17;;;;;;;4.80;2.38;;;16.90;78.00;;;;;;5080152;28;20114;-92
2021/08/26 01:07:06;;;;;;;5.47;2.42;;;16.90;78.10;;;;;;5053379;28;20108;-91
2021/08/26 01:09:43;;;;;;;6.00;2.28;;;16.90;78.20;;;;;;5043231;28;20115;-92
2021/08/26 01:12:15;;;;;;;9.60;3.15;;;16.90;78.20;;;;;;5066485;28;20053;-93
2021/08/26 01:14:43;;;;;;;4.85;2.50;;;16.90;78.20;;;;;;5066381;28;20049;-92
2021/08/26 01:17:17;;;;;;;6.40;2.72;;;17.00;78.30;;;;;;5066230;28;20057;-91
2021/08/26 01:19:44;;;;;;;5.85;3.00;;;17.00;78.40;;;;;;5046567;28;20054;-93
2021/08/26 01:22:11;;;;;;;5.30;3.38;;;16.90;78.40;;;;;;5014550;28;20108;-92
2021/08/26 01:24:39;;;;;;;4.78;2.55;;;17.00;78.40;;;;;;5046524;28;20100;-91
2021/08/26 01:27:08;;;;;;;6.75;3.40;;;17.00;78.50;;;;;;5046230;28;20057;-93
2021/08/26 01:29:35;;;;;;;9.82;3.67;;;17.00;78.60;;;;;;5014077;28;20050;-90
2021/08/26 01:32:02;;;;;;;5.95;3.00;;;16.90;78.60;;;;;;5060627;28;20057;-91
2021/08/26 01:34:29;;;;;;;8.68;3.90;;;16.90;78.80;;;;;;5061131;28;20057;-92
2021/08/26 01:36:56;;;;;;;9.98;3.70;;;16.90;78.90;;;;;;5065812;28;20103;-92
2021/08/26 01:39:23;;;;;;;7.05;3.30;;;16.90;79.00;;;;;;5065959;28;20060;-90
2021/08/26 01:41:55;;;;;;;10.38;3.97;;;16.90;79.00;;;;;;5065816;28;20061;-91
2021/08/26 01:44:29;;;;;;;5.47;3.22;;;16.90;79.10;;;;;;5032043;28;20045;-92
2021/08/26 01:47:03;;;;;;;7.38;3.70;;;16.90;79.20;;;;;;5033065;28;20425;-90
2021/08/26 01:49:30;;;;;;;9.18;4.30;;;16.90;79.30;;;;;;5016027;28;20057;-92
2021/08/26 01:51:57;;;;;;;11.40;4.53;;;16.90;79.30;;;;;;5013283;28;20061;-93
2021/08/26 01:54:23;;;;;;;8.27;4.10;;;16.90;79.30;;;;;;5012819;28;20100;-92
2021/08/26 01:56:50;;;;;;;8.25;3.97;;;16.90;79.40;;;;;;5018625;28;20045;-92
2021/08/26 01:59:18;;;;;;;6.75;4.00;;;16.90;79.40;;;;;;5065518;28;20057;-93
2021/08/26 02:01:45;;;;;;;10.90;4.55;;;16.90;79.40;;;;;;5065626;28;20106;-90
2021/08/26 02:04:12;;;;;;;9.13;4.45;;;16.90;79.40;;;;;;5016610;28;20067;-92
2021/08/26 02:06:39;;;;;;;7.50;3.97;;;16.90;79.50;;;;;;5013096;28;20451;-93
2021/08/26 02:09:06;;;;;;;11.52;4.53;;;16.90;79.50;;;;;;5013034;28;20127;-92
2021/08/26 02:11:33;;;;;;;7.85;4.38;;;16.90;79.40;;;;;;5013054;28;20420;-92
2021/08/26 02:14:00;;;;;;;7.78;4.35;;;16.90;79.40;;;;;;5012323;28;20081;-93
2021/08/26 02:16:26;;;;;;;7.13;3.55;;;16.90;79.50;;;;;;5012559;28;20050;-91
2021/08/26 02:18:53;;;;;;;8.25;3.92;;;16.90;79.50;;;;;;5045552;28;20116;-92
2021/08/26 02:21:20;;;;;;;11.15;4.70;;;16.90;79.50;;;;;;5045519;28;20050;-92
2021/08/26 02:23:48;;;;;;;9.18;4.55;;;16.90;79.60;;;;;;5045194;28;20054;-91
2021/08/26 02:26:15;;;;;;;9.77;4.22;;;16.90;79.70;;;;;;5045330;28;20459;-92
2021/08/26 02:28:41;;;;;;;8.13;4.70;;;16.90;79.70;;;;;;5064195;28;20524;-90
2021/08/26 02:31:08;;;;;;;10.52;4.70;;;16.90;79.80;;;;;;5049165;28;20502;-91
2021/08/26 02:33:35;;;;;;;9.65;4.10;;;17.00;79.80;;;;;;5012365;28;20459;-93
2021/08/26 02:36:02;;;;;;;11.70;4.63;;;16.90;79.80;;;;;;5012616;28;20057;-91
2021/08/26 02:38:29;;;;;;;10.85;4.70;;;17.00;79.80;;;;;;5014309;28;20050;-93
2021/08/26 02:40:56;;;;;;;8.25;4.70;;;16.90;79.80;;;;;;5065225;28;20061;-91
2021/08/26 02:43:23;;;;;;;15.35;5.15;;;17.00;79.80;;;;;;5064979;28;20176;-92
2021/08/26 02:45:50;;;;;;;9.88;4.68;;;17.00;79.80;;;;;;5064948;28;20065;-90
2021/08/26 02:48:17;;;;;;;7.95;4.20;;;17.00;79.90;;;;;;5033333;28;20062;-93
2021/08/26 02:50:44;;;;;;;10.40;4.82;;;16.90;79.90;;;;;;5064727;28;20104;-91
2021/08/26 02:53:11;;;;;;;7.40;4.20;;;17.00;80.00;;;;;;5064933;28;20061;-92
2021/08/26 02:55:38;;;;;;;8.57;5.10;;;17.00;80.00;;;;;;5047923;28;20054;-91
2021/08/26 02:58:05;;;;;;;8.13;4.50;;;16.90;80.00;;;;;;5030179;28;20053;-92
2021/08/26 03:00:32;;;;;;;8.10;4.20;;;17.00;80.00;;;;;;5079271;28;20057;-91
2021/08/26 03:02:59;;;;;;;8.02;4.38;;;17.00;80.10;;;;;;5056468;28;20063;-91
2021/08/26 03:05:26;;;;;;;6.85;4.47;;;17.00;80.10;;;;;;5055545;28;20080;-91
2021/08/26 03:07:58;;;;;;;8.82;4.13;;;17.00;80.20;;;;;;5055611;28;20404;-90
2021/08/26 03:10:25;;;;;;;6.03;4.18;;;17.00;80.30;;;;;;5038001;28;20052;-91
2021/08/26 03:12:53;;;;;;;9.23;4.60;;;17.00;80.30;;;;;;5055094;28;20062;-91
2021/08/26 03:15:21;;;;;;;6.40;3.75;;;17.00;80.40;;;;;;5015287;28;20062;-90
2021/08/26 03:17:48;;;;;;;6.07;3.50;;;17.00;80.50;;;;;;5034968;28;20064;-91
2021/08/26 03:20:15;;;;;;;7.22;3.65;;;17.00;80.50;;;;;;5034905;28;20553;-91
2021/08/26 03:22:42;;;;;;;8.75;3.55;;;16.90;80.50;;;;;;5047896;28;20057;-91
2021/08/26 03:25:09;;;;;;;8.43;3.83;;;16.90;80.60;;;;;;5047776;28;20405;-92
2021/08/26 03:27:36;;;;;;;9.18;3.67;;;17.00;80.70;;;;;;5014678;28;20104;-91
2021/08/26 03:30:05;;;;;;;6.35;3.67;;;16.90;80.70;;;;;;5047823;28;20054;-89
2021/08/26 03:32:32;;;;;;;8.95;4.20;;;16.90;80.80;;;;;;5048164;28;20527;-91
2021/08/26 03:34:59;;;;;;;7.03;3.90;;;16.90;80.80;;;;;;5047580;28;20100;-92
2021/08/26 03:37:26;;;;;;;8.32;4.43;;;16.90;80.90;;;;;;5047622;28;20064;-92
2021/08/26 03:39:53;;;;;;;9.55;5.13;;;16.90;80.90;;;;;;5047193;28;20062;-90
2021/08/26 03:42:23;;;;;;;11.55;5.18;;;16.90;80.90;;;;;;5046739;28;20081;-91
2021/08/26 03:44:50;;;;;;;7.45;5.07;;;16.90;81.00;;;;;;5047657;28;20058;-92
2021/08/26 03:47:17;;;;;;;9.80;5.90;;;16.90;81.10;;;;;;5014767;28;20050;-90
2021/08/26 03:49:45;;;;;;;9.95;6.07;;;16.90;81.20;;;;;;5047499;28;20061;-92
2021/08/26 03:52:12;;;;;;;13.48;6.55;;;16.90;81.30;;;;;;5015950;28;20057;-91
2021/08/26 03:54:39;;;;;;;14.18;7.05;;;16.90;81.30;;;;;;5047118;28;20054;-93
2021/08/26 03:57:06;;;;;;;10.05;7.40;;;16.90;81.40;;;;;;5047690;28;20038;-92
2021/08/26 03:59:34;;;;;;;12.48;8.07;;;16.90;81.40;;;;;;5014909;28;20054;-92
2021/08/26 04:02:01;;;;;;;14.40;9.15;;;16.90;81.50;;;;;;5047645;28;20115;-91
2021/08/26 04:04:28;;;;;;;14.50;9.73;;;16.90;81.50;;;;;;5047377;28;20420;-91
2021/08/26 04:06:55;;;;;;;13.07;10.90;;;16.90;81.60;;;;;;5014046;28;20101;-92
2021/08/26 04:09:22;;;;;;;17.73;11.95;;;16.90;81.60;;;;;;5022314;28;20447;-91
2021/08/26 04:11:49;;;;;;;18.30;13.70;;;16.90;81.70;;;;;;5034394;28;20054;-92
2021/08/26 04:14:16;;;;;;;13.27;9.40;;;16.90;81.80;;;;;;5034066;28;20053;-92
2021/08/26 04:16:43;;;;;;;17.80;14.35;;;16.90;81.80;;;;;;5047360;28;20053;-92
2021/08/26 04:19:10;;;;;;;19.10;14.48;;;16.90;81.80;;;;;;5045703;28;20060;-91
2021/08/26 04:21:37;;;;;;;19.10;14.27;;;16.90;81.90;;;;;;5047098;28;20054;-91
2021/08/26 04:24:04;;;;;;;20.10;15.07;;;16.90;81.90;;;;;;5033767;28;20187;-90
2021/08/26 04:26:31;;;;;;;16.40;12.57;;;16.90;81.90;;;;;;5034024;28;20069;-92
2021/08/26 04:28:58;;;;;;;17.90;13.75;;;16.90;81.90;;;;;;5034236;28;20491;-93
2021/08/26 04:31:25;;;;;;;18.65;13.35;;;16.90;82.00;;;;;;5033959;28;20079;-91
2021/08/26 04:33:52;;;;;;;16.52;12.45;;;16.90;82.00;;;;;;5033675;28;20115;-93
2021/08/26 04:36:20;;;;;;;14.27;10.55;;;16.90;82.10;;;;;;5033969;28;20103;-91
2021/08/26 04:38:47;;;;;;;12.85;9.98;;;16.90;82.10;;;;;;5029386;28;20053;-91
2021/08/26 04:41:14;;;;;;;12.95;10.13;;;16.90;82.10;;;;;;5014379;28;20053;-92
2021/08/26 04:43:41;;;;;;;12.57;8.65;;;16.90;82.10;;;;;;5025335;28;20111;-92
2021/08/26 04:46:08;;;;;;;13.88;8.90;;;16.90;82.10;;;;;;5020307;28;20077;-92
2021/08/26 04:48:35;;;;;;;9.32;7.60;;;16.90;82.30;;;;;;5016129;28;20076;-91
2021/08/26 04:51:02;;;;;;;10.65;7.18;;;16.90;82.20;;;;;;5033191;28;20053;-91
2021/08/26 04:53:29;;;;;;;12.93;7.53;;;16.90;82.20;;;;;;5066304;28;20061;-91
2021/08/26 04:55:56;;;;;;;10.68;7.63;;;16.90;82.20;;;;;;5066568;28;20053;-93
2021/08/26 04:58:24;;;;;;;12.52;7.43;;;16.90;82.20;;;;;;5084564;28;20053;-93
2021/08/26 05:00:51;;;;;;;9.48;6.45;;;16.90;82.20;;;;;;5041070;28;20049;-91
2021/08/26 05:03:18;;;;;;;7.72;5.65;;;16.90;82.30;;;;;;5066374;28;20050;-91
2021/08/26 05:05:46;;;;;;;8.35;6.18;;;16.90;82.30;;;;;;5066412;28;20053;-92
2021/08/26 05:08:12;;;;;;;8.77;6.30;;;16.90;82.30;;;;;;5066097;28;20072;-92
2021/08/26 05:10:40;;;;;;;8.70;6.20;;;16.90;82.30;;;;;;5065880;28;20050;-94
2021/08/26 05:13:08;;;;;;;9.20;6.35;;;16.90;82.30;;;;;;5066293;28;20057;-92
2021/08/26 05:15:39;;;;;;;10.02;6.88;;;16.90;82.40;;;;;;5065998;28;20053;-93
2021/08/26 05:18:08;;;;;;;10.25;6.35;;;16.90;82.40;;;;;;5065489;28;20053;-93
2021/08/26 05:20:34;;;;;;;12.40;7.10;;;16.90;82.40;;;;;;5063448;28;24851;-93
2021/08/26 05:23:15;;;;;;;9.02;6.40;;;16.90;82.30;;;;;;5012669;28;20108;-94
2021/08/26 05:25:42;;;;;;;8.75;6.40;;;16.90;82.30;;;;;;5013479;28;20054;-93
2021/08/26 05:28:09;;;;;;;8.73;5.78;;;16.90;82.40;;;;;;5027273;28;20499;-92
2021/08/26 05:30:39;;;;;;;11.27;6.28;;;16.90;82.40;;;;;;5061705;28;20484;-92
2021/08/26 05:33:06;;;;;;;8.75;6.43;;;16.90;82.40;;;;;;5066015;28;20103;-93
2021/08/26 05:35:33;;;;;;;8.10;5.63;;;16.90;82.50;;;;;;5033489;28;20430;-93
2021/08/26 05:38:01;;;;;;;10.70;6.43;;;16.90;82.50;;;;;;5051104;28;20158;-94
2021/08/26 05:40:28;;;;;;;7.63;5.70;;;16.90;82.50;;;;;;5022425;28;20061;-92
2021/08/26 05:42:55;;;;;;;10.32;6.10;;;16.90;82.50;;;;;;5032925;28;20419;-92
2021/08/26 05:45:22;;;;;;;7.88;5.22;;;16.90;82.60;;;;;;5032499;28;20057;-92
2021/08/26 05:47:55;;;;;;;7.13;5.13;;;16.90;82.60;;;;;;5061117;28;20049;-92
2021/08/26 05:50:23;;;;;;;7.43;4.97;;;16.90;82.60;;;;;;5028223;28;20412;-93
2021/08/26 05:52:51;;;;;;;7.75;4.68;;;16.90;82.60;;;;;;5032533;28;20389;-93
2021/08/26 05:55:18;;;;;;;8.48;5.10;;;16.90;82.60;;;;;;5031047;28;20053;-94
2021/08/26 05:57:46;;;;;;;8.57;5.13;;;16.90;82.60;;;;;;5031403;28;20423;-93
2021/08/26 06:00:13;;;;;;;6.13;4.55;;;16.90;82.70;;;;;;5030096;28;20073;-94
2021/08/26 06:02:40;;;;;;;7.85;4.50;;;16.90;82.70;;;;;;5030578;28;20100;-94
2021/08/26 06:05:08;;;;;;;5.88;3.85;;;16.90;82.70;;;;;;5034414;28;20476;-92
2021/08/26 06:07:37;;;;;;;7.18;3.85;;;16.90;82.80;;;;;;5030952;28;20041;-94
2021/08/26 06:10:09;;;;;;;5.35;3.53;;;16.90;82.80;;;;;;5028701;28;20050;-93
2021/08/26 06:12:41;;;;;;;6.90;3.33;;;16.90;82.90;;;;;;5059875;28;20049;-94
2021/08/26 06:15:10;;;;;;;7.03;3.42;;;16.90;82.90;;;;;;5021126;28;20104;-93
2021/08/26 06:17:36;;;;;;;5.43;3.20;;;16.90;83.00;;;;;;5034388;28;20046;-90
2021/08/26 06:20:06;;;;;;;5.90;2.58;;;16.90;83.10;;;;;;5031782;28;20054;-94
2021/08/26 06:22:33;;;;;;;5.90;2.72;;;16.90;83.10;;;;;;5056451;28;20050;-92
2021/08/26 06:25:02;;;;;;;7.78;2.33;;;16.80;83.10;;;;;;5058569;28;20053;-93
2021/08/26 06:27:31;;;;;;;7.53;2.80;;;16.80;83.10;;;;;;5034874;28;20049;-93
2021/08/26 06:30:05;;;;;;;10.00;2.42;;;16.80;82.80;;;;;;5031273;28;20041;-89
2021/08/26 06:32:33;;;;;;;8.18;2.50;;;16.70;82.70;;;;;;5068469;28;20397;-90
2021/08/26 06:35:02;;;;;;;8.60;2.65;;;16.70;82.60;;;;;;5035456;28;20057;-92
2021/08/26 06:37:32;;;;;;;8.00;2.42;;;16.70;82.60;;;;;;5018444;28;20463;-93
2021/08/26 06:40:02;;;;;;;8.63;2.83;;;16.60;82.60;;;;;;5021563;28;20061;-92
2021/08/26 06:42:32;;;;;;;7.03;2.60;;;16.60;82.70;;;;;;5018501;28;20136;-92
2021/08/26 06:45:00;;;;;;;7.60;2.50;;;16.60;82.70;;;;;;5061427;28;20045;-90
2021/08/26 06:47:30;;;;;;;9.45;2.90;;;16.60;82.80;;;;;;5020286;28;20061;-93
2021/08/26 06:50:01;;;;;;;13.13;3.30;;;16.60;82.80;;;;;;5016877;28;20062;-94
2021/08/26 06:52:28;;;;;;;10.63;3.28;;;16.60;82.80;;;;;;5021063;28;20108;-92
2021/08/26 06:54:55;;;;;;;16.52;3.45;;;16.60;82.70;;;;;;5025462;28;20049;-93
2021/08/26 06:57:24;;;;;;;14.98;3.30;;;16.60;82.80;;;;;;5021789;28;20111;-91
2021/08/26 06:59:51;;;;;;;14.18;3.72;;;16.60;82.80;;;;;;5030663;28;20117;-90
2021/08/26 07:02:18;;;;;;;13.25;3.90;;;16.60;82.70;;;;;;5034425;28;20135;-91
2021/08/26 07:04:45;;;;;;;13.88;3.67;;;16.60;82.70;;;;;;5023894;28;20049;-91
2021/08/26 07:07:12;;;;;;;15.07;3.40;;;16.60;82.60;;;;;;5028109;28;20083;-90
2021/08/26 07:09:39;;;;;;;11.20;3.38;;;16.70;82.50;;;;;;5032335;28;20053;-91
2021/08/26 07:12:06;;;;;;;12.60;3.88;;;16.70;82.60;;;;;;5032891;28;20053;-92
2021/08/26 07:14:35;;;;;;;15.35;3.42;;;16.80;82.60;;;;;;5049500;28;20519;-91
2021/08/26 07:17:05;;;;;;;13.27;4.22;;;16.80;82.60;;;;;;5034743;28;20049;-90
2021/08/26 07:19:32;;;;;;;14.77;3.63;;;16.80;82.50;;;;;;5034926;28;20056;-91
2021/08/26 07:22:00;;;;;;;11.63;3.67;;;16.80;82.60;;;;;;5054900;28;20049;-92
2021/08/26 07:24:29;;;;;;;17.42;3.80;;;16.80;82.70;;;;;;5017867;28;20053;-91
2021/08/26 07:26:56;;;;;;;13.75;3.75;;;16.90;82.80;;;;;;5031336;28;20065;-90
2021/08/26 07:29:24;;;;;;;15.60;4.10;;;16.90;83.00;;;;;;5017498;28;20053;-93
2021/08/26 07:31:51;;;;;;;12.85;3.53;;;16.90;83.00;;;;;;5014040;28;20061;-90
2021/08/26 07:34:18;;;;;;;18.52;3.85;;;17.00;82.90;;;;;;5016892;28;20143;-90
2021/08/26 07:36:44;;;;;;;14.73;4.03;;;17.10;82.80;;;;;;5016860;28;20053;-91
2021/08/26 07:39:12;;;;;;;17.63;3.70;;;17.20;82.70;;;;;;5030972;28;20104;-91
2021/08/26 07:41:39;;;;;;;15.73;3.70;;;17.20;82.40;;;;;;5030509;28;20049;-91
2021/08/26 07:44:08;;;;;;;14.80;3.85;;;17.30;82.30;;;;;;5020194;28;20504;-90
2021/08/26 07:46:35;;;;;;;13.10;4.00;;;17.30;82.10;;;;;;5018257;28;20057;-92
2021/08/26 07:49:07;;;;;;;15.75;4.22;;;17.40;82.00;;;;;;5017020;28;20115;-92
2021/08/26 07:51:38;;;;;;;15.98;4.00;;;17.30;81.90;;;;;;5018274;28;20054;-93
2021/08/26 07:54:08;;;;;;;14.10;4.18;;;17.40;81.10;;;;;;5030063;28;20459;-91
2021/08/26 07:56:35;;;;;;;19.75;4.30;;;17.40;80.00;;;;;;5014223;28;20108;-92
2021/08/26 07:59:03;;;;;;;16.10;3.80;;;17.40;79.90;;;;;;5048202;28;20061;-90
2021/08/26 08:01:30;;;;;;;12.40;3.70;;;17.50;80.00;;;;;;5028698;28;20642;-93
2021/08/26 08:03:59;;;;;;;22.70;3.80;;;17.50;80.10;;;;;;5031192;28;20465;-91
2021/08/26 08:06:26;;;;;;;11.18;3.85;;;17.50;79.40;;;;;;5026652;28;20050;-92
2021/08/26 08:08:54;;;;;;;14.93;3.55;;;17.60;78.50;;;;;;5062193;28;20060;-90
2021/08/26 08:11:21;;;;;;;17.23;3.90;;;17.60;78.30;;;;;;5020185;28;20057;-93
2021/08/26 08:14:02;;;;;;;12.45;3.88;;;17.70;77.70;;;;;;5037355;28;20057;-93
2021/08/26 08:16:33;;;;;;;17.35;4.18;;;17.80;77.70;;;;;;5053507;28;20567;-93
2021/08/26 08:19:03;;;;;;;15.15;4.32;;;17.90;77.60;;;;;;5040259;28;20053;-94
2021/08/26 08:21:31;;;;;;;21.77;4.35;;;17.90;76.90;;;;;;5071647;28;20053;-93
2021/08/26 08:23:58;;;;;;;15.75;4.38;;;17.90;76.20;;;;;;5068419;28;20086;-94
2021/08/26 08:26:25;;;;;;;19.38;4.32;;;17.90;75.60;;;;;;5032094;28;20064;-95
2021/08/26 08:28:55;;;;;;;14.82;3.83;;;17.90;75.60;;;;;;5054578;28;20080;-93
2021/08/26 08:31:23;;;;;;;15.75;3.80;;;17.90;75.90;;;;;;5020218;28;20065;-91
2021/08/26 08:33:56;;;;;;;19.02;4.53;;;17.90;76.20;;;;;;5029023;28;20061;-92
2021/08/26 08:36:23;;;;;;;18.88;3.92;;;17.90;76.40;;;;;;5034420;28;20496;-93
2021/08/26 08:38:50;;;;;;;16.33;4.20;;;17.90;76.00;;;;;;5064020;28;20041;-92
2021/08/26 08:41:17;;;;;;;18.25;4.97;;;18.00;76.10;;;;;;5017355;28;20046;-93
2021/08/26 08:43:45;;;;;;;10.38;3.55;;;18.10;76.30;;;;;;5050543;28;20053;-93
2021/08/26 08:46:17;;;;;;;17.42;4.00;;;18.10;76.30;;;;;;5026320;28;20057;-92
2021/08/26 08:48:46;;;;;;;17.88;4.00;;;18.10;76.20;;;;;;5047057;28;20464;-92
2021/08/26 08:51:14;;;;;;;14.35;4.10;;;18.10;76.00;;;;;;5046363;28;20053;-93
2021/08/26 08:53:41;;;;;;;14.15;4.43;;;18.20;75.60;;;;;;5049751;28;20049;-93
2021/08/26 08:56:09;;;;;;;20.10;4.60;;;18.20;75.70;;;;;;5052136;28;20066;-93
2021/08/26 08:58:40;;;;;;;16.50;3.90;;;18.30;75.90;;;;;;5021433;28;20111;-91
2021/08/26 09:01:08;;;;;;;10.52;3.60;;;18.40;75.50;;;;;;5031725;28;20053;-94
2021/08/26 09:03:37;;;;;;;14.48;3.92;;;18.40;75.50;;;;;;5064487;28;20641;-92
2021/08/26 09:06:08;;;;;;;10.95;3.95;;;18.40;75.10;;;;;;5013153;28;20068;-91
2021/08/26 09:08:35;;;;;;;13.60;4.05;;;18.60;74.60;;;;;;5047632;28;20069;-91
2021/08/26 09:11:22;;;;;;;13.45;3.88;;;18.60;74.60;;;;;;5033733;28;20061;-91
2021/08/26 09:13:49;;;;;;;15.93;4.07;;;18.70;73.50;;;;;;5027400;28;20084;-94
2021/08/26 09:16:16;;;;;;;17.50;4.57;;;18.80;73.30;;;;;;5030021;28;20099;-91
2021/08/26 09:18:43;;;;;;;13.88;3.97;;;18.80;73.30;;;;;;5056238;28;20589;-92
2021/08/26 09:21:11;;;;;;;13.00;3.95;;;18.90;73.10;;;;;;5031480;28;20061;-92
2021/08/26 09:23:54;;;;;;;14.65;4.53;;;18.90;72.80;;;;;;5049982;28;20061;-92
2021/08/26 09:26:23;;;;;;;11.45;4.38;;;18.90;72.80;;;;;;5046112;28;20046;-92
2021/08/26 09:28:52;;;;;;;12.52;3.35;;;18.90;72.70;;;;;;5029017;28;20046;-93
2021/08/26 09:31:27;;;;;;;12.82;3.63;;;18.90;72.80;;;;;;5016749;28;20054;-89
2021/08/26 09:34:18;;;;;;;15.27;4.28;;;18.90;71.50;;;;;;5025539;28;20095;-91
2021/08/26 09:36:48;;;;;;;15.00;3.75;;;18.90;71.10;;;;;;5061548;28;20054;-92
2021/08/26 09:39:19;;;;;;;14.82;3.47;;;18.90;70.30;;;;;;5031925;28;20061;-94
2021/08/26 09:41:59;;;;;;;12.95;4.05;;;18.90;70.40;;;;;;5064662;28;20122;-91
2021/08/26 09:44:36;;;;;;;12.75;3.88;;;18.90;70.60;;;;;;5028001;28;20443;-91
2021/08/26 09:47:12;;;;;;;13.32;3.95;;;18.90;70.70;;;;;;5013605;28;20050;-95
2021/08/26 09:49:40;;;;;;;16.40;3.92;;;19.10;70.40;;;;;;5064044;28;20053;-91
2021/08/26 09:52:15;;;;;;;11.68;3.45;;;19.20;70.40;;;;;;5017992;28;20054;-90
2021/08/26 09:54:49;;;;;;;12.98;3.17;;;19.20;68.50;;;;;;5015707;28;20041;-89
2021/08/26 09:57:27;;;;;;;13.45;4.00;;;19.30;68.90;;;;;;5058702;28;20404;-90
2021/08/26 09:59:59;;;;;;;12.13;3.60;;;19.50;69.10;;;;;;5015040;28;20046;-88
2021/08/26 10:02:28;;;;;;;10.65;3.28;;;19.60;68.50;;;;;;5046722;28;20068;-89
2021/08/26 10:04:56;;;;;;;9.85;3.47;;;19.70;68.40;;;;;;5023809;28;20049;-88
2021/08/26 10:07:27;;;;;;;15.18;3.30;;;19.90;68.30;;;;;;5021574;28;20500;-88
2021/08/26 10:09:55;;;;;;;15.40;3.70;;;19.90;68.40;;;;;;5018518;28;20045;-87
2021/08/26 10:12:22;;;;;;;12.25;3.40;;;20.10;67.40;;;;;;5015769;28;20049;-88
2021/08/26 10:14:51;;;;;;;9.38;3.70;;;20.10;66.90;;;;;;5011847;28;20053;-88
2021/08/26 10:17:19;;;;;;;13.45;3.40;;;20.20;67.30;;;;;;5014255;28;20050;-87
2021/08/26 10:19:48;;;;;;;9.48;3.40;;;20.30;67.10;;;;;;5015232;28;20045;-88
2021/08/26 10:22:15;;;;;;;11.48;3.20;;;20.30;66.40;;;;;;5014260;28;20136;-89
2021/08/26 10:24:43;;;;;;;11.00;3.22;;;20.40;66.40;;;;;;5026345;28;20471;-89
2021/08/26 10:27:17;;;;;;;11.27;3.42;;;20.40;66.70;;;;;;5028793;28;20491;-89
2021/08/26 10:29:48;;;;;;;10.38;2.85;;;20.50;67.10;;;;;;5012597;28;20049;-87
2021/08/26 10:32:23;;;;;;;14.80;3.50;;;20.60;66.20;;;;;;5028225;28;20065;-88
2021/08/26 10:35:13;;;;;;;9.40;3.40;;;20.70;65.40;;;;;;5026389;28;20041;-88
2021/08/26 10:37:55;;;;;;;11.18;3.33;;;20.70;65.20;;;;;;5056541;28;20103;-88
2021/08/26 10:40:25;;;;;;;11.85;2.78;;;20.70;64.40;;;;;;5018261;28;20077;-88
2021/08/26 10:42:53;;;;;;;16.73;3.30;;;20.60;64.80;;;;;;5019744;28;20053;-88
2021/08/26 10:45:24;;;;;;;12.38;3.58;;;20.60;64.80;;;;;;5029916;28;20053;-86
2021/08/26 10:47:57;;;;;;;12.25;3.45;;;20.50;65.20;;;;;;5058944;28;20049;-88
2021/08/26 10:50:38;;;;;;;14.88;3.50;;;20.50;65.60;;;;;;5013610;28;20120;-87
2021/08/26 10:53:12;;;;;;;12.23;3.33;;;20.40;65.80;;;;;;5043990;28;20057;-89
2021/08/26 10:55:46;;;;;;;10.43;3.60;;;20.30;65.40;;;;;;5057857;28;20060;-88
2021/08/26 10:58:22;;;;;;;10.43;3.28;;;20.20;65.40;;;;;;5019999;28;20049;-90
2021/08/26 11:00:54;;;;;;;11.50;3.53;;;20.10;65.60;;;;;;5019055;28;20104;-90
2021/08/26 11:03:36;;;;;;;11.88;3.53;;;20.10;65.30;;;;;;5044296;28;20104;-88
2021/08/26 11:06:19;;;;;;;12.93;3.50;;;20.00;65.40;;;;;;5017913;28;20042;-90
2021/08/26 11:08:47;;;;;;;11.73;3.40;;;20.00;65.80;;;;;;5030583;28;20050;-90
2021/08/26 11:11:27;;;;;;;12.75;3.88;;;20.00;66.00;;;;;;5063381;28;20050;-90
2021/08/26 11:14:00;;;;;;;11.73;3.28;;;20.00;66.60;;;;;;5028174;28;20046;-89
2021/08/26 11:16:27;;;;;;;;;;;20.10;66.40;;;;;;5028345;28;20046;-88
2021/08/26 11:19:20;;;;;;;12.20;3.42;;;20.10;66.00;;;;;;5028768;28;19928;-89
2021/08/26 11:21:47;;;;;;;11.55;3.67;;;20.10;66.10;;;;;;5029271;28;20057;-89
2021/08/26 11:24:14;;;;;;;11.98;3.75;;;20.00;66.20;;;;;;5032253;28;20045;-90
2021/08/26 11:26:51;;;;;;;11.93;3.10;;;20.00;67.10;;;;;;5018486;28;20045;-91
2021/08/26 11:29:21;;;;;;;12.52;3.15;;;20.00;67.20;;;;;;5034766;28;20065;-90
2021/08/26 11:31:54;;;;;;;13.00;3.25;;;19.90;66.20;;;;;;5026994;28;20397;-90
2021/08/26 11:34:59;;;;;;;9.17;2.87;;;20.00;65.80;;;;;;5022058;28;20058;-87
2021/08/26 11:37:31;;;;;;;12.13;3.22;;;19.90;66.20;;;;;;5014528;28;20721;-89
2021/08/26 11:40:02;;;;;;;9.75;2.78;;;20.00;66.40;;;;;;5057934;28;20053;-89
2021/08/26 11:42:33;;;;;;;9.82;3.20;;;20.00;66.60;;;;;;5029704;28;20405;-89
2021/08/26 11:45:15;;;;;;;9.75;2.72;;;20.10;66.60;;;;;;5014683;28;20041;-89
2021/08/26 11:47:54;;;;;;;13.43;3.15;;;20.20;66.40;;;;;;5046367;28;20492;-89
2021/08/26 11:50:23;;;;;;;6.75;2.30;;;20.30;66.60;;;;;;5029371;28;20076;-88
2021/08/26 11:52:56;;;;;;;10.55;3.20;;;20.40;66.20;;;;;;5046605;28;20049;-89
2021/08/26 11:55:37;;;;;;;11.40;3.13;;;20.30;65.50;;;;;;5051294;28;20526;-88
2021/08/26 11:58:09;;;;;;;10.20;3.03;;;20.30;65.70;;;;;;5020650;28;20103;-89
2021/08/26 12:00:42;;;;;;;12.80;2.90;;;20.30;65.80;;;;;;5028418;28;20112;-89
2021/08/26 12:03:09;;;;;;;14.02;3.30;;;20.20;65.30;;;;;;5028210;28;20057;-88
2021/08/26 12:05:39;;;;;;;7.70;2.13;;;20.20;65.90;;;;;;5014279;28;20068;-89
2021/08/26 12:08:08;;;;;;;7.43;2.50;;;20.10;66.30;;;;;;5051288;28;20049;-88
2021/08/26 12:10:41;;;;;;;10.55;2.55;;;20.00;66.80;;;;;;5031866;28;20061;-89
2021/08/26 12:13:11;;;;;;;8.85;2.10;;;19.90;67.20;;;;;;5064063;28;20056;-88
2021/08/26 12:15:44;;;;;;;9.65;2.15;;;19.90;67.40;;;;;;5064960;28;20123;-90
2021/08/26 12:18:16;;;;;;;8.70;1.88;;;19.90;67.70;;;;;;5030179;28;20468;-89
2021/08/26 12:21:05;;;;;;;10.73;2.55;;;19.90;67.40;;;;;;5032551;28;20046;-90
2021/08/26 12:23:36;;;;;;;6.28;1.70;;;19.90;67.20;;;;;;5046541;28;20060;-89
2021/08/26 12:26:12;;;;;;;5.72;2.00;;;20.00;67.30;;;;;;5061110;28;20424;-88
2021/08/26 12:28:43;;;;;;;6.18;1.65;;;20.10;67.10;;;;;;5016270;28;20497;-89
2021/08/26 12:31:18;;;;;;;5.38;1.50;;;20.20;67.00;;;;;;5031282;28;20511;-90
2021/08/26 12:34:00;;;;;;;5.25;1.40;;;20.20;65.70;;;;;;5031865;28;20049;-89
2021/08/26 12:36:29;;;;;;;4.00;1.27;;;20.30;65.40;;;;;;5030344;28;20045;-89
2021/08/26 12:39:28;;;;;;;5.18;1.52;;;20.30;65.40;;;;;;5015614;28;20141;-90
2021/08/26 12:42:09;;;;;;;5.07;1.50;;;20.40;65.60;;;;;;5046878;28;20053;-91
2021/08/26 12:44:36;;;;;;;6.90;1.60;;;20.40;65.20;;;;;;5014758;28;20057;-89
2021/08/26 12:47:07;;;;;;;6.97;1.70;;;20.40;65.40;;;;;;5017699;28;20112;-89
2021/08/26 12:49:47;;;;;;;6.25;1.55;;;20.50;65.00;;;;;;5017663;28;20054;-90
2021/08/26 12:52:15;;;;;;;6.22;1.85;;;20.60;64.90;;;;;;5022061;28;20103;-89
2021/08/26 12:54:43;;;;;;;6.65;1.88;;;20.60;64.90;;;;;;5025383;28;20052;-90
2021/08/26 12:57:24;;;;;;;7.95;1.90;;;20.60;64.60;;;;;;5028678;28;20057;-88
2021/08/26 12:59:51;;;;;;;7.90;1.70;;;20.60;64.80;;;;;;5013841;28;20057;-89